Latest Weather Observations for Yarrawonga

IDN60801

Issued at 9:02 pm EDT Friday 24 February 2017 (issued every 30 minutes, with the page automatically refreshed every 10 minutes)

About weather observations | Map of weather stations | Latest weather observations for NSW | Other Formats
Station Details ID: 081124 Name: YARRAWONGA Lat: -36.03 Lon: 146.03 Height: 128.9 m
Data from the previous 72 hours. | See also: Recent months at Yarrawonga
Date/Time
EDT
Temp
°C
App
Temp
°C
Dew
Point
°C
Rel
Hum
%
Delta-T
°C
Wind Press
QNH
hPa
Press
MSL
hPa
Rain since
9am
mm
Dir  Spd
km/h
Gust
km/h
Spd
kts
Gust
kts
24/09:00pm 19.8 15.4 9.1 50 5.7 SW 22 32 12 17 - 1018.6 0.0
24/08:30pm 20.6 16.2 8.9 47 6.2 SW 22 28 12 15 1018.9 1018.3 0.0
24/08:00pm 21.9 16.6 8.4 42 7.1 SW 26 37 14 20 1018.6 1018.0 0.0
24/07:30pm 23.7 17.7 8.6 38 8.1 SW 30 39 16 21 1018.2 1017.6 0.0
24/07:00pm 25.6 19.6 8.6 34 9.2 SW 30 39 16 21 1018.0 1017.4 0.0
24/06:30pm 26.8 20.3 8.3 31 10.1 SW 32 41 17 22 1017.9 1017.3 0.0
24/06:00pm 27.9 21.7 7.7 28 10.9 SW 30 37 16 20 1017.8 1017.2 0.0
24/05:30pm 28.7 21.3 4.9 22 12.3 SW 33 43 18 23 1017.6 1017.0 0.0
24/05:00pm 29.0 22.0 7.0 25 11.8 SW 33 43 18 23 1017.5 1016.9 0.0
24/04:30pm 29.5 23.0 8.0 26 11.8 SW 32 44 17 24 1017.7 1017.1 0.0
24/04:00pm 29.9 23.6 7.2 24 12.3 WSW 30 41 16 22 1018.0 1017.4 0.0
24/03:30pm 29.8 23.4 7.1 24 12.3 WSW 30 43 16 23 1018.1 1017.5 0.0
24/03:00pm 30.4 25.8 8.2 25 12.3 SW 22 35 12 19 1018.4 1017.8 0.0
24/02:30pm 30.0 24.6 7.8 25 12.2 WSW 26 35 14 19 1018.8 1018.2 0.0
24/02:00pm 30.1 24.7 7.9 25 12.2 WSW 26 41 14 22 1019.1 1018.5 0.0
24/01:30pm 29.3 24.8 8.4 27 11.5 SW 22 32 12 17 1019.4 1018.8 0.0
24/01:00pm 28.6 24.5 8.8 29 10.9 SW 20 32 11 17 1019.7 1019.1 0.0
24/12:30pm 27.6 24.5 10.3 34 9.8 WSW 17 33 9 18 1020.1 1019.5 0.0
24/12:00pm 27.3 24.6 11.7 37 9.0 SW 17 28 9 15 1020.4 1019.8 0.0
24/11:30am 26.0 24.0 12.8 44 7.7 SW 15 24 8 13 1020.6 1020.0 0.0
24/11:00am 25.3 23.8 14.1 50 6.6 SW 15 24 8 13 1020.8 1020.3 0.0
24/10:30am 23.9 22.5 14.6 56 5.5 SW 15 30 8 16 1020.8 1020.3 0.0
24/10:00am 22.6 21.1 14.2 59 4.9 SW 15 22 8 12 1020.8 1020.3 0.0
24/09:30am 21.7 19.6 14.6 64 4.2 SW 19 26 10 14 1020.7 1020.2 0.0
24/09:00am 20.1 19.0 14.2 69 3.4 SW 13 17 7 9 1020.5 1019.9 0.0
24/08:30am 17.8 16.5 13.7 77 2.3 SW 13 17 7 9 1020.5 1019.9 0.0
24/08:00am 16.2 15.2 13.3 83 1.6 WSW 11 15 6 8 1020.1 1019.5 0.0
24/07:30am 13.7 13.1 12.4 92 0.7 WSW 7 7 4 4 1019.9 1019.3 0.0
24/07:00am 13.5 12.1 12.1 91 0.8 WSW 11 11 6 6 1019.7 1019.1 0.0
24/06:30am 13.5 12.8 12.1 91 0.8 WSW 7 9 4 5 1019.3 1018.7 0.0
24/06:00am 13.9 12.9 12.3 90 0.9 WSW 9 13 5 7 1019.1 1018.5 0.0
24/05:30am 13.8 13.2 11.7 87 1.1 WSW 6 9 3 5 1018.7 1018.1 0.0
24/05:00am 14.5 13.0 12.0 85 1.4 WSW 11 15 6 8 1018.3 1017.7 0.0
24/04:30am 14.5 13.4 12.0 85 1.4 WSW 9 11 5 6 1018.1 1017.5 0.0
24/04:00am 14.2 13.0 11.5 84 1.4 WSW 9 11 5 6 1018.1 1017.5 0.0
24/03:30am 14.8 13.6 11.6 81 1.7 WSW 9 11 5 6 1018.2 1017.6 0.0
24/03:00am 17.0 15.3 12.3 74 2.6 W 13 15 7 8 1018.2 1017.6 0.0
24/02:30am 16.9 15.8 12.0 73 2.7 W 9 13 5 7 1018.0 1017.4 0.0
24/02:00am 18.0 16.7 12.5 70 3.1 WSW 11 13 6 7 1017.9 1017.3 0.0
24/01:30am 18.8 18.0 13.0 69 3.3 SW 9 13 5 7 1018.1 1017.5 0.0
24/01:00am 20.0 18.5 13.2 65 3.9 SSW 13 17 7 9 1018.0 1017.4 0.0
24/12:30am 20.5 19.4 13.2 63 4.2 SSW 11 17 6 9 1017.9 1017.3 0.0
24/12:00am 20.1 18.3 12.1 60 4.5 SW 13 17 7 9 1017.9 1017.3 0.0
 
Date/Time
EDT
Temp
°C
App
Temp
°C
Dew
Point
°C
Rel
Hum
%
Delta-T
°C
Wind Press
QNH
hPa
Press
MSL
hPa
Rain since
9am
mm
Dir  Spd
km/h
Gust
km/h
Spd
kts
Gust
kts
23/11:30pm 20.2 17.8 10.0 52 5.5 WSW 13 15 7 8 1017.8 1017.2 0.0
23/11:00pm 21.0 18.2 8.6 45 6.5 WSW 13 17 7 9 1017.9 1017.3 0.0
23/10:30pm 22.5 20.4 8.2 40 7.6 W 9 11 5 6 1017.9 1017.3 0.0
23/10:00pm 21.1 18.4 7.3 41 7.1 W 11 13 6 7 1017.8 1017.2 0.0
23/09:30pm 22.6 20.3 7.6 38 7.9 W 9 9 5 5 1017.6 1017.0 0.0
23/09:00pm 22.9 21.0 7.4 37 8.1 SW 7 7 4 4 1017.3 1016.7 0.0
23/08:30pm 25.4 22.7 7.5 32 9.5 SW 11 15 6 8 1017.0 1016.4 0.0
23/08:00pm 27.8 25.0 8.6 30 10.5 SW 13 20 7 11 1016.5 1015.9 0.0
23/07:30pm 30.2 26.8 9.1 27 11.8 WSW 17 22 9 12 1016.2 1015.6 0.0
23/07:00pm 31.6 28.4 8.6 24 12.9 W 15 22 8 12 1016.0 1015.4 0.0
23/06:30pm 32.2 28.8 9.1 24 13.1 WNW 17 24 9 13 1015.9 1015.3 0.0
23/06:00pm 32.5 29.0 8.7 23 13.4 W 17 24 9 13 1015.7 1015.1 0.0
23/05:30pm 32.6 29.1 8.8 23 13.4 W 17 26 9 14 1015.6 1015.0 0.0
23/05:00pm 33.0 29.0 9.1 23 13.6 W 20 32 11 17 1015.6 1015.0 0.0
23/04:30pm 33.7 30.4 9.7 23 13.8 WSW 17 28 9 15 1015.6 1015.0 0.0
23/04:00pm 33.6 30.0 8.3 21 14.2 WNW 17 28 9 15 1015.7 1015.1 0.0
23/03:30pm 34.4 31.5 9.6 22 14.3 W 15 22 8 12 1015.9 1015.3 0.0
23/03:00pm 32.5 28.8 8.0 22 13.6 W 17 32 9 17 1016.1 1015.5 0.0
23/02:30pm 32.8 29.1 6.2 19 14.4 NW 15 26 8 14 1016.2 1015.6 0.0
23/02:00pm 31.8 28.6 6.8 21 13.6 WNW 13 20 7 11 1016.5 1015.9 0.0
23/01:30pm 31.5 28.9 7.9 23 13.1 WNW 11 20 6 11 1016.6 1016.0 0.0
23/01:00pm 29.9 28.1 9.4 28 11.5 NW 9 15 5 8 1016.8 1016.2 0.0
23/12:30pm 29.1 26.7 8.7 28 11.3 WNW 11 20 6 11 1017.1 1016.5 0.0
23/12:00pm 27.9 25.5 8.7 30 10.6 NW 11 17 6 9 1017.2 1016.6 0.0
23/11:30am 28.0 26.5 9.3 31 10.4 W 7 15 4 8 1017.2 1016.6 0.0
23/11:00am 26.5 24.5 8.5 32 9.8 W 9 20 5 11 1017.1 1016.5 0.0
23/10:30am 25.0 23.4 8.9 36 8.8 W 7 11 4 6 1017.0 1016.4 0.0
23/10:00am 23.5 21.6 9.1 40 7.8 W 9 15 5 8 1016.9 1016.3 0.0
23/09:30am 22.5 19.9 9.3 43 7.1 WSW 13 19 7 10 1016.7 1016.1 0.0
23/09:00am 20.9 17.9 9.2 47 6.2 W 15 19 8 10 1016.5 1015.9 0.0
23/08:30am 20.2 17.5 8.8 48 6.0 W 13 19 7 10 1016.1 1015.5 0.0
23/08:00am 18.9 16.8 8.3 50 5.5 W 9 13 5 7 1015.8 1015.2 0.0
23/07:30am 16.1 14.5 7.8 58 4.2 W 6 7 3 4 1015.4 1014.8 0.0
23/07:00am 15.7 14.0 7.5 58 4.1 W 6 9 3 5 1014.7 1014.2 0.0
23/06:30am 17.6 15.3 7.6 52 5.1 W 9 13 5 7 1014.2 1013.7 0.0
23/06:00am 18.1 15.4 7.5 50 5.4 W 11 15 6 8 1014.0 1013.5 0.0
23/05:30am 19.7 16.8 8.1 47 6.0 W 13 19 7 10 1013.6 1013.0 0.0
23/05:00am 20.4 17.9 8.4 46 6.3 W 11 15 6 8 1013.4 1012.8 0.0
23/04:30am 20.8 18.1 7.4 42 6.9 W 11 15 6 8 1013.0 1012.4 0.0
23/04:00am 22.0 19.7 5.8 35 8.2 WNW 7 9 4 5 1012.8 1012.2 0.0
23/03:30am 23.2 20.4 5.2 31 9.1 W 9 15 5 8 1012.5 1011.9 0.0
23/03:00am 23.7 20.7 4.1 28 9.7 NW 9 13 5 7 1012.4 1011.8 0.0
23/02:30am 24.9 19.6 5.2 28 10.0 NW 22 43 12 23 1012.6 1012.0 0.0
23/02:23am 21.3 18.3 7.9 42 7.0 N 13 39 7 21 1012.8 1012.2 0.0
23/02:00am 20.8 19.0 8.1 44 6.7 NNE 7 9 4 5 1011.7 1011.1 0.0
23/01:30am 21.8 19.1 7.2 39 7.6 NNE 11 13 6 7 1011.8 1011.2 0.0
23/01:00am 21.4 19.1 7.6 41 7.2 NNE 9 13 5 7 1012.1 1011.5 0.0
23/12:30am 22.8 20.7 8.1 39 7.8 NNE 9 11 5 6 1012.2 1011.6 0.0
23/12:00am 22.9 21.2 8.2 39 7.8 NNE 7 9 4 5 1012.2 1011.6 0.0
 
Date/Time
EDT
Temp
°C
App
Temp
°C
Dew
Point
°C
Rel
Hum
%
Delta-T
°C
Wind Press
QNH
hPa
Press
MSL
hPa
Rain since
9am
mm
Dir  Spd
km/h
Gust
km/h
Spd
kts
Gust
kts
22/11:30pm 23.1 20.9 8.0 38 8.0 NNE 9 11 5 6 1012.2 1011.6 0.0
22/11:00pm 24.2 21.9 7.4 34 8.9 NNE 9 11 5 6 1012.2 1011.6 0.0
22/10:30pm 25.3 22.7 6.0 29 10.0 NNE 9 11 5 6 1012.1 1011.5 0.0
22/10:00pm 25.6 22.9 5.8 28 10.2 NNE 9 13 5 7 1011.9 1011.3 0.0
22/09:30pm 25.5 22.7 5.1 27 10.4 NNE 9 13 5 7 1011.6 1011.0 0.0
22/09:00pm 27.0 24.2 5.3 25 11.2 NNE 9 11 5 6 1011.4 1010.8 0.0
22/08:30pm 27.8 24.9 4.8 23 11.8 NNE 9 11 5 6 1011.1 1010.5 0.0
22/08:00pm 30.9 27.6 4.6 19 13.8 NNE 11 15 6 8 1011.0 1010.4 0.0
22/07:30pm 32.5 28.2 5.1 18 14.6 N 17 22 9 12 1011.0 1010.4 0.0
22/07:00pm 33.9 29.1 5.4 17 15.4 N 20 26 11 14 1010.9 1010.3 0.0
22/06:30pm 34.8 29.0 4.4 15 16.2 N 24 32 13 17 1011.0 1010.4 0.0
22/06:00pm 34.3 30.1 5.8 17 15.5 N 17 24 9 13 1011.0 1010.4 0.0
22/05:30pm 34.6 29.7 5.1 16 15.9 N 20 33 11 18 1011.1 1010.5 0.0
22/05:00pm 34.6 29.7 5.1 16 15.9 N 20 30 11 16 1011.4 1010.8 0.0
22/04:30pm 34.2 29.1 3.9 15 15.9 N 20 32 11 17 1011.9 1011.3 0.0
22/04:00pm 34.2 28.9 4.8 16 15.7 N 22 33 12 18 1012.3 1011.7 0.0
22/03:30pm 33.7 28.5 3.5 15 15.7 NNW 20 33 11 18 1013.1 1012.5 0.0
22/03:00pm 33.0 27.9 3.9 16 15.2 N 20 30 11 16 1013.6 1013.0 0.0
22/02:30pm 33.6 28.7 4.3 16 15.5 N 19 30 10 16 1014.1 1013.6 0.0
22/02:00pm 31.9 26.7 3.8 17 14.6 N 20 30 11 16 1014.7 1014.2 0.0
22/01:30pm 31.9 26.9 3.8 17 14.6 N 19 30 10 16 1015.2 1014.6 0.0
22/01:00pm 31.7 26.7 4.5 18 14.2 N 20 33 11 18 1015.6 1015.0 0.0
22/12:30pm 29.9 24.9 4.5 20 13.2 N 20 28 11 15 1016.2 1015.6 0.0
22/12:00pm 29.6 25.4 7.5 25 12.0 NNE 19 24 10 13 1016.6 1016.0 0.0
22/11:30am 28.3 24.7 10.0 32 10.3 NNE 19 30 10 16 1017.0 1016.4 0.0
22/11:00am 26.7 24.0 11.6 39 8.7 NNE 17 24 9 13 1017.3 1016.7 0.0
22/10:30am 25.9 23.7 13.4 46 7.4 NE 17 24 9 13 1017.6 1017.0 0.0
22/10:00am 23.7 21.0 13.0 51 6.2 NE 19 26 10 14 1017.7 1017.1 0.0
22/09:30am 21.5 19.0 12.4 56 5.2 ENE 17 26 9 14 1017.8 1017.2 0.0
22/09:00am 20.1 17.2 11.1 56 5.0 ENE 17 26 9 14 1017.8 1017.2 0.0
22/08:30am 18.3 15.9 9.9 58 4.5 E 13 20 7 11 1017.9 1017.3 0.0
22/08:00am 15.8 13.6 9.5 66 3.3 E 11 17 6 9 1017.8 1017.2 0.0
22/07:30am 13.1 11.2 9.0 76 2.1 E 9 11 5 6 1017.5 1016.9 0.0
22/07:00am 11.6 9.6 8.5 81 1.5 E 9 11 5 6 1017.2 1016.6 0.0
22/06:30am 11.4 9.6 8.1 80 1.6 E 7 9 4 5 1017.1 1016.5 0.0
22/06:00am 11.0 9.3 7.7 80 1.6 ESE 6 6 3 3 1017.0 1016.4 0.0
22/05:30am 11.4 9.8 8.1 80 1.6 E 6 7 3 4 1017.0 1016.4 0.0
22/05:00am 11.4 9.7 7.7 78 1.8 E 6 9 3 5 1017.0 1016.4 0.0
22/04:30am 11.8 10.1 7.5 75 2.1 E 6 9 3 5 1016.8 1016.2 0.0
22/04:00am 12.1 10.2 7.4 73 2.3 E 7 9 4 5 1016.8 1016.2 0.0
22/03:30am 11.9 9.9 7.0 72 2.4 ESE 7 9 4 5 1017.0 1016.4 0.0
22/03:00am 11.6 9.5 5.7 67 2.8 E 6 7 3 4 1017.1 1016.5 0.0
22/02:30am 11.1 9.6 5.0 66 2.8 ESE 2 4 1 2 1017.2 1016.6 0.0
22/02:00am 11.3 9.5 5.6 68 2.6 SE 4 4 2 2 1017.2 1016.6 0.0
22/01:30am 11.6 10.5 5.3 65 2.9 CALM 0 0 0 0 1017.5 1016.9 0.0
22/01:00am 12.2 10.5 6.0 66 2.9 SE 4 4 2 2 1017.8 1017.2 0.0
22/12:30am 12.4 10.9 5.1 61 3.4 S 2 4 1 2 1018.0 1017.4 0.0
22/12:00am 13.5 11.8 5.9 60 3.6 S 4 4 2 2 1018.2 1017.6 0.0
 
Date/Time
EDT
Temp
°C
App
Temp
°C
Dew
Point
°C
Rel
Hum
%
Delta-T
°C
Wind Press
QNH
hPa
Press
MSL
hPa
Rain since
9am
mm
Dir  Spd
km/h
Gust
km/h
Spd
kts
Gust
kts
21/11:30pm 14.2 13.2 5.6 56 4.1 CALM 0 0 0 0 1018.2 1017.6 0.0
21/11:00pm 15.1 14.2 5.9 54 4.4 CALM 0 0 0 0 1018.3 1017.7 0.0
21/10:30pm 14.6 12.7 4.9 52 4.6 SE 4 4 2 2 1018.4 1017.8 0.0
21/10:00pm 16.1 13.9 5.1 48 5.2 S 6 7 3 4 1018.5 1017.9 0.0
21/09:30pm 17.6 16.1 5.2 44 6.0 SW 2 4 1 2 1018.3 1017.7 0.0

Other Formats:

Comma delimited format used in spreadsheet applications
http://www.bom.gov.au/fwo/IDN60801/IDN60801.94862.axf

JavaScript Object Notation format (JSON) in row-major order
http://www.bom.gov.au/fwo/IDN60801/IDN60801.94862.json